Historyczne dane pomiarowe

Dodano dane terminowe – wersja testowa.

Dane z okresu 1951-2019

Wersja bazy: 1.34 [2019-03-16, lista zmian], aktualizacja planowana na 2019-04-15

Dane meteo z obszaru Polski uzyskane na podstawie danych udostępnionych przez Instytut Meteorologii i Gospodarki Wodnej – Państwowy Instytut Badawczy.

 

Wybierz Datę:    

       

TemperaturaWilgotnośćWiatrCiśnienieOpadyŚniegCzas trwania zjawisk
 Stacja t tx tn tng RH VA  wxwx mslp ppp RRR   cm mm wxwxwxwxwxwxwx
1983-08-14 10.9 14.2 8.6- 81.0- 4.3 0.7---- 0.8------------
1983-08-13 12.5 16.8 11.8- 89.0- 7.3 0.3---- 5.3------------
1983-08-12 16.7 23.4 12.5- 78.8- 5.0 0.0---- 2.3------------
1983-08-11 15.0 17.8 12.5- 82.8- 7.3 0.3---- 8.4------------
1983-08-10 14.8 21.5 9.3- 77.3- 4.0 0.0---- 2.1------------
1983-08-09 15.3 21.3 10.0- 82.8- 4.7 0.3---- 0.7------------
1983-08-08 15.6 20.3 11.8- 86.3- 5.7 0.0---- 5.2------------
1983-08-07 13.8 17.6 11.0- 89.0- 8.0 0.0---- 16.0------------
1983-08-06 12.9 17.8 9.1- 78.0- 7.0 0.3---- 0.6------------
1983-08-05 10.5 14.5 7.7- 85.8- 8.0 0.0---- 0.2------------
1983-08-04 11.1 18.6 9.3- 86.5- 8.0 0.3---- 6.8------------
1983-08-03 18.2 24.5 14.7- 80.5- 5.0 0.3---- 13.9------------
1983-08-02 18.0 28.0 11.3- 82.0- 4.0 0.0---- 4.7------------
1983-08-01 16.3 25.4 7.1- 79.0- 0.0 0.3---- 0.0------------
1983-07-31 15.3 21.8 7.7- 75.5- 0.3 0.7---- 0.0------------
1983-07-30 14.9 20.3 11.6- 79.3- 6.7 1.0---- 0.8------------
1983-07-29 17.3 22.3 11.8- 80.0- 4.3 1.0---- 0.1------------
1983-07-28 19.3 25.6 13.3- 75.3- 6.0 0.0---- 0.0------------
1983-07-27 18.4 27.7 11.8- 75.0- 1.0 0.0---- 0.0------------
1983-07-26 18.2 23.9 12.4- 69.3- 2.7 0.7---- 0.0------------
1983-07-25 14.4 17.8 10.7- 74.3- 4.3 0.0---- 0.0------------
1983-07-24 15.0 18.1 10.3- 83.0- 8.0 0.0---- 0.0------------
1983-07-23 14.2 16.8 10.8- 72.0- 5.3 0.3---- 0.0------------
1983-07-22 11.7 14.1 5.8- 69.3- 8.0 0.3---- 2.6------------
1983-07-21 10.3 14.5 6.8- 69.5- 6.3 1.7---- 0.1------------
1983-07-20 16.1 24.1 10.4- 83.0- 7.7 2.3---- 5.0------------
1983-07-19 19.5 28.2 12.1- 80.0- 4.0 1.0---- 0.3------------
1983-07-18 18.3 27.8 10.8- 72.3- 3.7 0.3---- 0.0------------
1983-07-17 18.2 25.5 12.1- 76.3- 2.3 0.0---- 0.0------------
1983-07-16 17.2 26.1 9.3- 75.8- 2.7 0.0---- 0.0------------
1983-07-15 16.7 21.3 13.7- 78.0- 2.0 0.0---- 0.0------------
1983-07-14 15.1 18.6 12.7- 91.3- 8.0 0.3---- 33.8------------
1983-07-13 13.7 16.6 10.7- 89.8- 8.0 1.3---- 60.3------------
1983-07-12 15.0 19.9 12.3- 87.0- 6.3 0.0---- 17.8------------
1983-07-11 16.6 22.9 11.0- 79.0- 4.3 0.3---- 8.7------------
1983-07-10 18.0 24.4 11.1- 72.8- 2.7 0.3---- 0.2------------
1983-07-09 16.2 23.9 8.3- 78.8- 2.7 1.0---- 0.0------------
1983-07-08 16.3 24.1 8.6- 67.0- 0.0 0.0---- 0.0------------
1983-07-07 18.6 25.5 11.1- 65.5- 1.7 0.0---- 0.0------------
1983-07-06 17.6 24.9 10.6- 73.0- 2.3 0.0---- 0.0------------
1983-07-05 16.5 24.0 8.8- 73.3- 0.7 0.7---- 0.0------------
1983-07-04 16.0 23.3 7.9- 75.0- 2.0 0.0---- 0.0------------
1983-07-03 17.0 22.2 13.2- 77.0- 1.7 0.3---- 0.0------------
1983-07-02 16.7 21.5 12.8- 82.5- 7.0 0.3---- 2.4------------
1983-07-01 16.5 24.1 8.4- 81.3- 4.0 0.3---- 0.0------------
1983-06-30 13.6 21.8 4.0- 81.5- 0.7 0.3---- 0.0------------
1983-06-29 12.8 17.2 9.6- 79.8- 4.3 0.7---- 0.0------------
1983-06-28 14.2 18.1 12.5- 94.5- 8.0 0.3---- 7.9------------
1983-06-27 16.3 23.4 12.0- 87.5- 7.3 0.0---- 2.0------------
1983-06-26 14.6 19.5 9.8- 89.8- 6.3 0.0---- 12.1------------
1983-06-25 15.8 24.5 9.3- 85.0- 1.0 0.3---- 0.7------------
1983-06-24 14.3 23.7 4.3- 78.0- 0.7 0.0---- 0.0------------
1983-06-23 12.8 20.1 3.3- 70.3- 0.0 0.0---- 0.0------------
1983-06-22 13.5 17.3 10.3- 61.3- 2.7 1.3---- 0.0------------
1983-06-21 15.8 20.3 12.2- 82.0- 3.7 0.0---- 0.0------------
1983-06-20 15.1 17.5 13.2- 96.0- 7.3 1.0---- 0.0------------
1983-06-19 12.7 17.0 9.0- 93.5- 8.0 1.0---- 41.2------------
1983-06-18 9.2 11.5 8.0- 92.8- 8.0 0.3---- 20.4------------
1983-06-17 8.8 9.7 7.4- 90.5- 8.0 1.3---- 10.2------------
1983-06-16 9.0 13.2 7.8- 92.8- 8.0 0.7---- 5.5------------
300.3 ms

 

Źródłem pochodzenia danych jest Instytut Meteorologii i Gospodarki Wodnej – Państwowy Instytut Badawczy. Dane Instytutu Meteorologii i Gospodarki Wodnej – Państwowego Instytutu Badawczego zostały przetworzone.

Dane źródłowe można odnaleźć na stronie https://dane.imgw.pl